»·PEaware :: DAL214 KBOI-KGEG

DAL214 :: KBOI-KGEG

FLIGHT INFORMATION

Flight Status: Arrived
Operator:
Delta Air Lines
More flights by this operator :: More flights under this callsign
Pilot: Jordan S. (14404)
Aircraft: AIRBUS A320
(A320)
More flights by this aircraft type
Origin: KBOI Boise Air Terminal/Gowen
United States
Destination: KGEG Spokane Intl
United States
More flights between these airports :: More routes between these airports
Route: BOI3 DEETZ ODYSY
File this flight plan on PilotEdge
Remarks:
Altitude:
(Current/Filed)
24,000ft
Speed:
(Current/Filed)
600kts
Departed: 07-May-18 09:10 PM
Arrived: 07-May-18 10:01 PM
Distance/Time
Traveled:
249nm/0:51
Distance/Time
To Go:
Arrived

Flight Plot

Page will automatically refresh every two minutes.

Flight plan parsing failed; only flown route is shown


Map Options




Map Legend


Flown Route
Filed Route
Departure Airport
Arrival Airport
Navaid (VOR, NDB)
Fix

Horizontal Profiles

Position Reports

Time Latitude Longitude Heading Altitude Ground
Speed
07-May-18 20:56 43.567327 -116.220817 24 2880ft 0kts
07-May-18 20:57 43.567327 -116.220817 24 2880ft 0kts
07-May-18 20:58 43.567327 -116.220817 24 2880ft 0kts
07-May-18 20:59 43.567327 -116.220817 24 2880ft 0kts
07-May-18 21:00 43.567327 -116.220817 24 2880ft 0kts
07-May-18 21:01 43.567062 -116.220981 24 2880ft 0kts
07-May-18 21:02 43.567062 -116.220981 24 2880ft 0kts
07-May-18 21:03 43.567062 -116.220980 24 2880ft 0kts
07-May-18 21:04 43.567062 -116.220980 24 2880ft 0kts
07-May-18 21:05 43.567128 -116.220940 24 2880ft 0kts
07-May-18 21:06 43.567101 -116.223950 291 2880ft 21kts
07-May-18 21:07 43.569270 -116.230376 296 2880ft 28kts
07-May-18 21:08 43.570601 -116.239713 256 2880ft 0kts
07-May-18 21:09 43.568907 -116.239193 115 2880ft 32kts
07-May-18 21:10 43.559498 -116.211444 115 2881ft 208kts
07-May-18 21:11 43.559099 -116.210276 115 2881ft 211kts
07-May-18 21:12 43.559537 -116.209028 354 2880ft 0kts
07-May-18 21:13 43.559570 -116.209033 354 2880ft 0kts
07-May-18 21:14 43.559570 -116.209033 354 2880ft 0kts
07-May-18 21:15 43.559570 -116.209033 354 2880ft 0kts
07-May-18 21:16 43.559570 -116.209033 354 2880ft 0kts
07-May-18 21:17 43.559570 -116.209033 354 2880ft 0kts
07-May-18 21:18 43.559570 -116.209033 354 2880ft 0kts
07-May-18 21:19 43.559570 -116.209033 354 2880ft 0kts
07-May-18 21:20 43.559570 -116.209033 354 2880ft 0kts
07-May-18 21:21 43.559570 -116.209033 354 2880ft 0kts
07-May-18 21:22 43.566039 -116.224524 295 3106ft 149kts
07-May-18 21:23 43.586117 -116.287385 294 5586ft 249kts
07-May-18 21:24 43.615517 -116.376696 294 7464ft 279kts
07-May-18 21:25 43.679830 -116.410267 26 9461ft 287kts
07-May-18 21:26 43.751699 -116.356556 25 11518ft 316kts
07-May-18 21:27 43.838296 -116.301833 23 13561ft 367kts
07-May-18 21:28 43.935667 -116.242990 23 15562ft 396kts
07-May-18 21:29 44.066820 -116.164030 23 17935ft 415kts
07-May-18 21:30 44.299235 -116.062908 0 20039ft 433kts
07-May-18 21:31 44.532916 -116.126498 343 23904ft 435kts
07-May-18 21:32 44.781085 -116.233729 342 24034ft 486kts
07-May-18 21:33 45.038099 -116.346007 343 24034ft 485kts
07-May-18 21:34 45.292578 -116.458154 343 24034ft 485kts
07-May-18 21:35 45.542134 -116.569161 343 24034ft 485kts
07-May-18 21:36 45.692708 -116.636641 343 24035ft 485kts
07-May-18 21:37 45.828999 -116.698048 342 24035ft 485kts
07-May-18 21:38 45.979945 -116.766431 342 24034ft 485kts
07-May-18 21:39 46.107448 -116.824486 342 23844ft 483kts
07-May-18 21:40 46.233958 -116.882408 342 22624ft 475kts
07-May-18 21:41 46.358793 -116.939819 342 21379ft 466kts
07-May-18 21:42 46.480554 -116.996072 342 20122ft 458kts
07-May-18 21:43 46.600171 -117.051599 342 18512ft 448kts
07-May-18 21:44 46.717005 -117.106080 342 16880ft 437kts
07-May-18 21:45 46.831143 -117.159543 342 15249ft 427kts
07-May-18 21:46 46.942937 -117.212139 342 13608ft 417kts
07-May-18 21:47 47.051847 -117.263595 342 12101ft 408kts
07-May-18 21:48 47.158425 -117.314166 342 11556ft 388kts
07-May-18 21:49 47.255803 -117.360645 342 9861ft 354kts
07-May-18 21:50 47.346267 -117.403942 340 8066ft 332kts
07-May-18 21:51 47.427631 -117.442921 21 6243ft 316kts
07-May-18 21:52 47.493673 -117.371750 39 6033ft 289kts
07-May-18 21:53 47.553090 -117.292125 50 6032ft 290kts
07-May-18 21:54 47.604946 -117.201242 44 6030ft 290kts
07-May-18 21:55 47.677404 -117.207322 325 5655ft 284kts
07-May-18 21:56 47.733102 -117.271414 303 4796ft 224kts
07-May-18 21:57 47.756861 -117.340365 258 4037ft 176kts
07-May-18 21:58 47.720239 -117.385067 224 4020ft 171kts
07-May-18 21:59 47.657065 -117.479469 225 3165ft 159kts
07-May-18 22:00 47.627654 -117.523750 226 2394ft 124kts
07-May-18 22:01 47.620582 -117.531724 133 2393ft 1kts

Navigation Log

Ident Type
Flight plan parsing failed, navigation log unavailable